Time;durP1;ratioP1;P1;durP2;ratioP2;P2;SDS_P1;SDS_P2;PMS_P1;PMS_P2;Temp;Humidity;BMP_temperature;BMP_pressure;BME280_temperature;BME280_humidity;BME280_pressure;Samples;Min_cycle;Max_cycle;Signal;HPM_P1;HPM_P2
2022/05/21 00:01:08;;;;;;;7.28;5.20;;;14.80;99.90;;;;;;5053482;28;20021;-83
2022/05/21 00:03:33;;;;;;;13.13;5.85;;;14.80;99.90;;;;;;5052196;28;20028;-83
2022/05/21 00:05:59;;;;;;;7.05;5.55;;;14.70;99.90;;;;;;5053819;28;20033;-83
2022/05/21 00:08:25;;;;;;;7.75;5.07;;;14.70;99.90;;;;;;5052639;28;20036;-83
2022/05/21 00:10:50;;;;;;;8.10;5.53;;;14.70;99.90;;;;;;5052172;28;20020;-84
2022/05/21 00:13:16;;;;;;;8.82;4.63;;;14.70;99.90;;;;;;5052427;28;20404;-83
2022/05/21 00:15:42;;;;;;;6.43;5.07;;;14.80;99.90;;;;;;5053245;28;20029;-84
2022/05/21 00:18:08;;;;;;;12.70;5.30;;;14.80;99.90;;;;;;5053863;28;20127;-83
2022/05/21 00:20:49;;;;;;;5.97;4.88;;;14.80;99.90;;;;;;5052808;28;20043;-83
2022/05/21 00:23:28;;;;;;;8.60;5.18;;;14.80;99.90;;;;;;5052950;28;20029;-83
2022/05/21 00:26:12;;;;;;;9.18;5.68;;;14.70;99.90;;;;;;5054053;28;20040;-83
2022/05/21 00:28:40;;;;;;;7.82;5.68;;;14.60;99.90;;;;;;5052026;28;20057;-83
2022/05/21 00:31:08;;;;;;;5.93;4.95;;;14.60;99.90;;;;;;5050636;28;20032;-83
2022/05/21 00:33:34;;;;;;;8.85;4.68;;;14.60;99.90;;;;;;5052876;28;20068;-83
2022/05/21 00:36:00;;;;;;;7.85;4.82;;;14.50;99.90;;;;;;5051474;28;20359;-83
2022/05/21 00:38:26;;;;;;;9.73;5.68;;;14.50;99.90;;;;;;5051725;28;20021;-82
2022/05/21 00:40:53;;;;;;;8.48;4.60;;;14.50;99.90;;;;;;5051152;28;20021;-82
2022/05/21 00:43:47;;;;;;;5.00;4.50;;;14.50;99.90;;;;;;5052924;28;20025;-83
2022/05/21 00:46:14;;;;;;;6.25;3.80;;;14.30;99.90;;;;;;5051488;28;20064;-82
2022/05/21 00:48:41;;;;;;;6.85;3.78;;;14.40;99.90;;;;;;5052900;28;20029;-82
2022/05/21 00:51:12;;;;;;;7.10;4.65;;;14.40;99.90;;;;;;5051144;28;20036;-83
2022/05/21 00:53:38;;;;;;;;;;;14.30;99.90;;;;;;5053229;28;20492;-83
2022/05/21 00:56:05;;;;;;;7.20;4.05;;;14.30;99.90;;;;;;5052062;28;19974;-83
2022/05/21 01:01:17;;;;;;;10.57;3.88;;;14.20;99.90;;;;;;5051673;28;20489;-83
2022/05/21 01:03:43;;;;;;;4.50;3.72;;;14.30;99.90;;;;;;5051181;28;20544;-83
2022/05/21 01:06:11;;;;;;;7.03;3.58;;;14.30;99.90;;;;;;5051489;28;20493;-83
2022/05/21 01:08:38;;;;;;;6.57;3.97;;;14.30;99.90;;;;;;5053414;28;20031;-82
2022/05/21 01:11:10;;;;;;;7.13;3.75;;;14.30;99.90;;;;;;5050508;28;20035;-82
2022/05/21 01:13:38;;;;;;;4.30;3.08;;;14.20;99.90;;;;;;5050857;28;20045;-83
2022/05/21 01:16:04;;;;;;;10.25;3.95;;;14.10;99.90;;;;;;5051004;28;20025;-83
2022/05/21 01:18:30;;;;;;;6.88;3.97;;;14.10;99.90;;;;;;5050919;28;20021;-82
2022/05/21 01:20:58;;;;;;;5.05;3.47;;;14.10;99.90;;;;;;5051541;28;20083;-82
2022/05/21 01:23:25;;;;;;;4.45;3.42;;;14.10;99.90;;;;;;5051281;28;20032;-83
2022/05/21 01:25:52;;;;;;;7.07;4.05;;;14.00;99.90;;;;;;5051558;28;20040;-82
2022/05/21 01:28:21;;;;;;;5.72;4.00;;;13.90;99.90;;;;;;5051168;28;20124;-83
2022/05/21 01:30:52;;;;;;;7.25;4.55;;;13.90;99.90;;;;;;5050260;28;20051;-83
2022/05/21 01:33:28;;;;;;;7.05;4.70;;;13.80;99.90;;;;;;5051906;28;20029;-83
2022/05/21 01:35:53;;;;;;;7.43;4.70;;;13.70;99.90;;;;;;5050969;28;20493;-83
2022/05/21 01:38:21;;;;;;;8.70;5.10;;;13.60;99.90;;;;;;5050796;28;20025;-83
2022/05/21 01:40:48;;;;;;;5.05;3.75;;;13.60;99.90;;;;;;5051634;28;20025;-83
2022/05/21 01:45:58;;;;;;;5.47;3.28;;;13.40;99.90;;;;;;5052837;28;20044;-83
2022/05/21 01:48:26;;;;;;;5.22;3.47;;;13.30;99.90;;;;;;5051155;28;20398;-82
2022/05/21 01:50:53;;;;;;;5.15;3.13;;;13.20;99.90;;;;;;5050407;28;20083;-83
2022/05/21 01:53:20;;;;;;;7.90;3.28;;;13.20;99.90;;;;;;5052061;28;20499;-83
2022/05/21 01:55:47;;;;;;;4.22;3.28;;;13.20;99.90;;;;;;5051034;28;20021;-83
2022/05/21 01:58:13;;;;;;;7.40;3.50;;;13.20;99.90;;;;;;5051046;28;20029;-83
2022/05/21 02:00:40;;;;;;;3.28;2.85;;;13.10;99.90;;;;;;5051188;28;20021;-83
2022/05/21 02:03:07;;;;;;;5.05;3.33;;;13.10;99.90;;;;;;5050110;28;20047;-83
2022/05/21 02:05:33;;;;;;;4.15;3.10;;;13.10;99.90;;;;;;5051307;28;20036;-83
2022/05/21 02:07:59;;;;;;;4.30;2.70;;;13.10;99.90;;;;;;5051341;28;20509;-83
2022/05/21 02:10:25;;;;;;;5.20;3.08;;;13.10;99.90;;;;;;5050806;28;20186;-83
2022/05/21 02:12:50;;;;;;;6.35;3.15;;;13.10;99.90;;;;;;5051300;28;20057;-83
2022/05/21 02:15:16;;;;;;;4.22;3.05;;;13.00;99.90;;;;;;5051338;28;20039;-83
2022/05/21 02:17:42;;;;;;;5.07;2.60;;;13.00;99.90;;;;;;5053740;28;20024;-83
2022/05/21 02:20:08;;;;;;;4.75;3.47;;;13.00;99.90;;;;;;5052765;28;20025;-83
2022/05/21 02:22:36;;;;;;;6.68;2.47;;;13.00;99.90;;;;;;5053571;28;20100;-83
2022/05/21 02:25:03;;;;;;;3.53;2.95;;;12.80;99.90;;;;;;5053393;28;20486;-83
2022/05/21 02:27:28;;;;;;;6.40;2.47;;;12.80;99.90;;;;;;5053526;28;20060;-83
2022/05/21 02:29:54;;;;;;;6.10;2.78;;;12.80;99.90;;;;;;5054189;28;20060;-83
2022/05/21 02:32:19;;;;;;;5.53;2.58;;;12.70;99.90;;;;;;5053219;28;20025;-83
2022/05/21 02:34:45;;;;;;;4.03;2.28;;;12.70;99.90;;;;;;5053041;28;20481;-83
2022/05/21 02:39:54;;;;;;;5.07;2.65;;;12.60;99.90;;;;;;5054155;28;20027;-83
2022/05/21 02:45:05;;;;;;;2.78;2.22;;;12.50;99.90;;;;;;5054433;28;20485;-83
2022/05/21 02:47:31;;;;;;;2.90;2.30;;;12.40;99.90;;;;;;5054681;28;20036;-82
2022/05/21 02:49:57;;;;;;;5.28;2.25;;;12.40;99.90;;;;;;5053981;28;20037;-82
2022/05/21 02:52:23;;;;;;;4.00;2.60;;;12.30;99.90;;;;;;5052589;28;20029;-82
2022/05/21 02:54:48;;;;;;;7.88;2.88;;;12.30;99.90;;;;;;5052573;28;20057;-83
2022/05/21 02:57:15;;;;;;;5.22;2.80;;;12.20;99.90;;;;;;5052861;28;20064;-82
2022/05/21 02:59:40;;;;;;;4.47;2.85;;;12.30;99.90;;;;;;5052348;28;20484;-82
2022/05/21 03:02:06;;;;;;;4.63;3.15;;;12.20;99.90;;;;;;5054196;28;20044;-83
2022/05/21 03:04:32;;;;;;;3.55;2.70;;;12.20;99.90;;;;;;5054664;28;20036;-83
2022/05/21 03:06:58;;;;;;;5.95;3.00;;;12.20;99.90;;;;;;5054603;28;20029;-83
2022/05/21 03:12:09;;;;;;;6.78;3.80;;;12.20;99.90;;;;;;5054275;28;20040;-83
2022/05/21 03:14:35;;;;;;;5.82;3.35;;;12.30;99.90;;;;;;5053870;28;20178;-82
2022/05/21 03:17:00;;;;;;;5.97;3.78;;;12.30;99.90;;;;;;5054682;28;20025;-83
2022/05/21 03:19:31;;;;;;;9.00;4.75;;;12.30;99.90;;;;;;5052892;28;20473;-83
2022/05/21 03:21:57;;;;;;;6.75;3.97;;;12.40;99.90;;;;;;5054489;28;20029;-82
2022/05/21 03:24:23;;;;;;;6.20;3.22;;;12.40;99.90;;;;;;5052845;28;20110;-83
2022/05/21 03:26:49;;;;;;;8.13;3.78;;;12.40;99.90;;;;;;5053470;28;20032;-83
2022/05/21 03:29:15;;;;;;;8.73;4.00;;;12.50;99.90;;;;;;5053537;28;20021;-83
2022/05/21 03:31:41;;;;;;;8.13;4.30;;;12.40;99.90;;;;;;5052410;28;20029;-83
2022/05/21 03:34:06;;;;;;;5.60;4.43;;;12.40;99.90;;;;;;5052751;28;20024;-83
2022/05/21 03:36:32;;;;;;;6.70;4.65;;;12.40;99.90;;;;;;5052805;28;20028;-83
2022/05/21 03:38:58;;;;;;;14.43;5.57;;;12.40;99.90;;;;;;5053137;28;20116;-83
2022/05/21 03:41:25;;;;;;;8.32;4.05;;;12.40;99.90;;;;;;5051985;28;20021;-83
2022/05/21 03:43:52;;;;;;;9.55;5.18;;;12.50;99.90;;;;;;5052684;28;20086;-83
2022/05/21 03:46:18;;;;;;;7.97;4.43;;;12.50;99.90;;;;;;5053500;28;20048;-83
2022/05/21 03:48:44;;;;;;;5.55;3.83;;;12.50;99.90;;;;;;5053546;28;20056;-83
2022/05/21 03:51:10;;;;;;;8.55;4.60;;;12.40;99.90;;;;;;5051658;28;20072;-83
2022/05/21 03:53:36;;;;;;;8.60;4.43;;;12.50;99.90;;;;;;5053531;28;20096;-84
2022/05/21 03:56:02;;;;;;;7.43;4.90;;;12.50;99.90;;;;;;5053436;28;20032;-83
2022/05/21 03:58:28;;;;;;;5.85;4.40;;;12.50;99.90;;;;;;5051993;28;20020;-82
2022/05/21 04:00:54;;;;;;;8.30;5.20;;;12.50;99.90;;;;;;5051629;28;20025;-84
2022/05/21 04:03:19;;;;;;;8.65;5.68;;;12.40;99.90;;;;;;5051840;28;20101;-82
2022/05/21 04:05:45;;;;;;;8.32;5.80;;;12.50;99.90;;;;;;5051924;28;20025;-83
2022/05/21 04:08:11;;;;;;;9.25;5.93;;;12.50;99.90;;;;;;5051530;28;20017;-83
2022/05/21 04:10:36;;;;;;;9.63;6.25;;;12.50;99.90;;;;;;5051678;28;20025;-83
2022/05/21 04:13:02;;;;;;;11.90;6.05;;;12.50;99.90;;;;;;5051746;28;20503;-83
2022/05/21 04:15:27;;;;;;;8.77;6.18;;;12.60;99.90;;;;;;5051931;28;20036;-83
2022/05/21 04:17:53;;;;;;;10.68;6.60;;;12.50;99.90;;;;;;5053142;28;20056;-84
2022/05/21 04:20:23;;;;;;;10.00;6.75;;;12.60;99.90;;;;;;5051091;28;20056;-84
2022/05/21 04:22:48;;;;;;;9.82;7.15;;;12.50;99.90;;;;;;5051906;28;20025;-84
2022/05/21 04:25:14;;;;;;;10.13;6.82;;;12.50;99.90;;;;;;5051839;28;20435;-84
2022/05/21 04:27:40;;;;;;;9.55;7.10;;;12.50;99.90;;;;;;5051992;28;20025;-84
2022/05/21 04:30:10;;;;;;;12.00;6.85;;;12.50;99.90;;;;;;5051395;28;20116;-84
2022/05/21 04:32:37;;;;;;;10.00;7.53;;;12.50;99.90;;;;;;5052048;28;20025;-84
2022/05/21 04:35:03;;;;;;;12.63;7.28;;;12.60;99.90;;;;;;5053167;28;20562;-84
2022/05/21 04:37:29;;;;;;;10.90;7.25;;;12.60;99.90;;;;;;5051886;28;20020;-84
2022/05/21 04:39:54;;;;;;;9.55;6.97;;;12.60;99.90;;;;;;5051343;28;20155;-84
2022/05/21 04:42:19;;;;;;;11.40;8.15;;;12.70;99.90;;;;;;5051658;28;20378;-84
2022/05/21 04:44:45;;;;;;;10.45;7.03;;;12.60;99.90;;;;;;5059009;28;20036;-84
2022/05/21 04:47:10;;;;;;;13.55;6.57;;;12.70;99.90;;;;;;5059945;28;20047;-84
2022/05/21 04:49:36;;;;;;;13.23;7.28;;;12.80;99.90;;;;;;5060285;28;20029;-82
2022/05/21 04:52:03;;;;;;;13.13;7.50;;;12.80;99.90;;;;;;5058846;28;20020;-83
2022/05/21 04:54:30;;;;;;;11.93;6.40;;;12.90;99.90;;;;;;5058477;28;20032;-83
2022/05/21 04:56:57;;;;;;;9.23;6.53;;;12.90;99.90;;;;;;5059758;28;20021;-84
2022/05/21 04:59:26;;;;;;;9.00;6.43;;;13.00;99.90;;;;;;5059550;28;20017;-83
2022/05/21 05:01:52;;;;;;;10.10;7.28;;;12.90;99.90;;;;;;5058584;28;20044;-82
2022/05/21 05:04:18;;;;;;;15.05;7.90;;;13.00;99.90;;;;;;5057435;28;20032;-83
2022/05/21 05:06:44;;;;;;;8.68;6.07;;;13.00;99.90;;;;;;5057459;28;20024;-83
2022/05/21 05:09:10;;;;;;;9.57;6.72;;;13.00;99.90;;;;;;5059507;28;20083;-82
2022/05/21 05:11:36;;;;;;;10.00;6.43;;;13.00;99.90;;;;;;5058302;28;20487;-81
2022/05/21 05:14:02;;;;;;;9.32;6.82;;;13.00;99.90;;;;;;5059786;28;20087;-81
2022/05/21 05:16:28;;;;;;;9.52;6.53;;;13.00;99.90;;;;;;5056720;28;20029;-81
2022/05/21 05:18:57;;;;;;;11.55;7.72;;;13.00;99.90;;;;;;5056652;28;20383;-81
2022/05/21 05:21:25;;;;;;;12.35;7.57;;;12.90;99.90;;;;;;5057517;28;20021;-81
2022/05/21 05:23:54;;;;;;;9.27;7.07;;;12.90;99.90;;;;;;5055929;28;20086;-81
2022/05/21 05:26:23;;;;;;;10.48;6.90;;;12.90;99.90;;;;;;5054596;28;20025;-81
2022/05/21 05:28:49;;;;;;;10.48;7.07;;;13.00;99.90;;;;;;5054758;28;20017;-81
2022/05/21 05:31:15;;;;;;;10.23;7.05;;;13.00;99.90;;;;;;5054055;28;20025;-82
2022/05/21 05:33:41;;;;;;;11.82;7.20;;;13.10;99.90;;;;;;5055539;28;20706;-84
2022/05/21 05:36:07;;;;;;;14.45;6.68;;;13.20;99.90;;;;;;5059936;28;20072;-84
2022/05/21 05:38:34;;;;;;;13.60;7.03;;;13.20;99.90;;;;;;5066097;28;20031;-81
2022/05/21 05:41:01;;;;;;;9.07;7.22;;;13.30;99.90;;;;;;5050108;28;20189;-81
2022/05/21 05:43:27;;;;;;;13.82;6.60;;;13.30;99.90;;;;;;5066022;28;20029;-82
2022/05/21 05:45:59;;;;;;;13.52;7.45;;;13.40;99.90;;;;;;5065374;28;20056;-83
2022/05/21 05:48:29;;;;;;;13.65;8.43;;;13.40;99.90;;;;;;5066131;28;20025;-82
2022/05/21 05:50:56;;;;;;;12.77;8.07;;;13.50;99.90;;;;;;5064696;28;20028;-82
2022/05/21 05:53:24;;;;;;;11.65;8.07;;;13.50;99.90;;;;;;5068656;28;20029;-82
2022/05/21 05:55:50;;;;;;;12.98;8.65;;;13.60;99.90;;;;;;5069309;28;20116;-84
2022/05/21 06:01:00;;;;;;;13.38;8.73;;;13.40;99.90;;;;;;5069820;28;20055;-82
2022/05/21 06:03:26;;;;;;;16.20;9.20;;;13.40;99.90;;;;;;5068952;28;20052;-82
2022/05/21 06:05:53;;;;;;;12.98;7.78;;;13.50;99.90;;;;;;5068044;28;20029;-83
2022/05/21 06:08:19;;;;;;;15.38;9.00;;;13.50;99.90;;;;;;5065061;28;20025;-82
2022/05/21 06:10:49;;;;;;;17.27;8.73;;;13.60;99.90;;;;;;5067485;28;20029;-82
2022/05/21 06:13:18;;;;;;;17.07;9.90;;;13.50;99.90;;;;;;5067946;28;20009;-82
2022/05/21 06:15:47;;;;;;;16.30;9.73;;;13.50;99.90;;;;;;5065525;28;20082;-83
2022/05/21 06:18:16;;;;;;;12.75;8.85;;;13.60;99.90;;;;;;5065747;28;20024;-83
2022/05/21 06:20:43;;;;;;;11.93;9.05;;;13.60;99.90;;;;;;5058448;28;20028;-82
2022/05/21 06:23:09;;;;;;;17.33;11.07;;;13.60;99.90;;;;;;5057379;28;20064;-83
2022/05/21 06:25:35;;;;;;;14.52;9.55;;;13.60;99.90;;;;;;5055673;28;20025;-84
2022/05/21 06:28:04;;;;;;;12.75;10.43;;;13.70;99.90;;;;;;5055531;28;20025;-83
2022/05/21 06:30:32;;;;;;;17.73;11.32;;;13.60;99.90;;;;;;5054595;28;20021;-83
2022/05/21 06:32:59;;;;;;;14.40;11.57;;;13.60;99.90;;;;;;5057483;28;20108;-83
2022/05/21 06:35:26;;;;;;;18.73;12.45;;;13.60;99.90;;;;;;5056541;28;20052;-83
2022/05/21 06:37:52;;;;;;;17.88;11.73;;;13.60;99.90;;;;;;5055307;28;20028;-83
2022/05/21 06:40:21;;;;;;;17.02;13.43;;;13.50;99.90;;;;;;5055065;28;20029;-83
2022/05/21 06:42:51;;;;;;;20.00;13.93;;;13.50;99.90;;;;;;5056449;28;20021;-82
2022/05/21 06:45:17;;;;;;;;;;;13.60;99.90;;;;;;5056134;28;20025;-83
2022/05/21 06:47:46;;;;;;;24.60;15.40;;;13.50;99.90;;;;;;5056011;28;19905;-82
2022/05/21 06:50:15;;;;;;;21.67;15.68;;;13.50;99.90;;;;;;5055808;28;20029;-84
2022/05/21 06:52:41;;;;;;;24.42;16.13;;;13.50;99.90;;;;;;5056207;28;20083;-83
2022/05/21 06:55:07;;;;;;;25.65;15.98;;;13.50;99.90;;;;;;5056148;28;20029;-83
2022/05/21 06:57:32;;;;;;;24.10;16.17;;;13.50;99.90;;;;;;5054963;28;20021;-84
2022/05/21 07:00:01;;;;;;;25.23;17.55;;;13.50;99.90;;;;;;5054686;28;20047;-82
2022/05/21 07:02:30;;;;;;;24.48;17.10;;;13.50;99.90;;;;;;5056712;28;20021;-83
2022/05/21 07:07:46;;;;;;;27.67;18.42;;;13.50;99.90;;;;;;5056177;28;20039;-83
2022/05/21 07:10:18;;;;;;;28.83;19.10;;;13.60;99.90;;;;;;5055953;28;20032;-83
2022/05/21 07:12:48;;;;;;;26.52;18.88;;;13.60;99.90;;;;;;5055784;28;20028;-82
2022/05/21 07:15:15;;;;;;;27.02;19.77;;;13.60;99.90;;;;;;5054934;28;20038;-83
2022/05/21 07:17:41;;;;;;;34.72;20.80;;;13.70;99.90;;;;;;5056134;28;20032;-83
2022/05/21 07:20:10;;;;;;;28.60;19.92;;;13.70;99.90;;;;;;5055105;28;20071;-83
2022/05/21 07:22:40;;;;;;;31.17;20.60;;;13.70;99.90;;;;;;5054085;28;20025;-83
2022/05/21 07:25:06;;;;;;;27.53;20.63;;;13.70;99.90;;;;;;5054415;28;20095;-83
2022/05/21 07:27:32;;;;;;;29.45;21.13;;;13.70;99.90;;;;;;5053903;28;20159;-84
2022/05/21 07:30:00;;;;;;;30.42;21.15;;;13.70;99.90;;;;;;5054882;28;20084;-83
2022/05/21 07:32:27;;;;;;;30.15;21.88;;;13.80;99.90;;;;;;5054159;28;20025;-83
2022/05/21 07:35:00;;;;;;;27.80;19.67;;;13.80;99.90;;;;;;5053896;28;20036;-83
2022/05/21 07:37:27;;;;;;;28.15;19.38;;;13.80;99.90;;;;;;5054641;28;20013;-83
2022/05/21 07:39:52;;;;;;;25.20;20.23;;;13.90;99.90;;;;;;5054344;28;20079;-83
2022/05/21 07:42:21;;;;;;;32.88;21.67;;;13.90;99.90;;;;;;5053631;28;20017;-83
2022/05/21 07:44:47;;;;;;;27.60;21.85;;;13.90;99.90;;;;;;5054497;28;20025;-83
2022/05/21 07:47:15;;;;;;;32.50;22.35;;;13.90;99.90;;;;;;5053093;28;20478;-83
2022/05/21 07:49:45;;;;;;;24.63;20.85;;;13.90;99.90;;;;;;5053504;28;20104;-83
2022/05/21 07:52:10;;;;;;;33.05;21.83;;;13.80;99.90;;;;;;5054064;28;20366;-82
2022/05/21 07:54:36;;;;;;;32.75;21.85;;;13.80;99.90;;;;;;5052317;28;20032;-82
2022/05/21 07:57:05;;;;;;;28.73;20.65;;;13.90;99.90;;;;;;5052960;28;20017;-83
2022/05/21 07:59:31;;;;;;;26.38;19.48;;;14.00;99.90;;;;;;5051921;28;20025;-82
2022/05/21 08:01:57;;;;;;;28.35;21.00;;;14.10;99.90;;;;;;5052475;28;20539;-82
2022/05/21 08:04:23;;;;;;;30.08;20.35;;;14.20;99.90;;;;;;5052441;28;20024;-83
2022/05/21 08:06:49;;;;;;;26.08;19.27;;;14.30;99.90;;;;;;5052237;28;20048;-82
2022/05/21 08:09:14;;;;;;;28.73;20.13;;;14.40;99.90;;;;;;5052206;28;20028;-82
2022/05/21 08:11:40;;;;;;;28.48;18.77;;;14.60;99.90;;;;;;5051700;28;20025;-82
2022/05/21 08:14:06;;;;;;;24.90;18.05;;;14.70;99.90;;;;;;5053073;28;20029;-82
2022/05/21 08:16:31;;;;;;;31.48;19.75;;;14.70;99.90;;;;;;5052568;28;20043;-82
2022/05/21 08:18:57;;;;;;;23.50;18.83;;;14.70;99.90;;;;;;5051970;28;20032;-82
2022/05/21 08:21:23;;;;;;;27.73;17.10;;;14.60;99.90;;;;;;5052639;28;20413;-82
2022/05/21 08:26:56;;;;;;;29.00;19.20;;;14.70;99.90;;;;;;5054426;28;20036;-82
2022/05/21 08:29:22;;;;;;;29.08;18.00;;;14.70;99.90;;;;;;5051549;28;20074;-82
2022/05/21 08:31:48;;;;;;;24.73;15.20;;;15.20;99.90;;;;;;5051657;28;20575;-82
2022/05/21 08:34:13;;;;;;;19.10;13.60;;;16.40;99.90;;;;;;5051370;28;20071;-82
2022/05/21 08:36:39;;;;;;;15.13;11.02;;;17.50;99.90;;;;;;5051770;28;20553;-83
2022/05/21 08:39:05;;;;;;;19.85;11.80;;;18.60;99.90;;;;;;5053671;28;20028;-82
2022/05/21 08:41:35;;;;;;;15.70;11.55;;;19.20;99.90;;;;;;5051713;28;20035;-82
2022/05/21 08:44:08;;;;;;;18.92;10.70;;;19.50;99.70;;;;;;5053754;28;20097;-83
2022/05/21 08:46:37;;;;;;;18.92;11.65;;;19.50;99.70;;;;;;5051176;28;20540;-82
2022/05/21 08:49:18;;;;;;;15.93;12.00;;;19.70;98.40;;;;;;5051153;28;20021;-82
2022/05/21 08:51:50;;;;;;;19.08;10.98;;;19.60;97.60;;;;;;5052373;28;20036;-82
2022/05/21 08:54:23;;;;;;;15.68;10.85;;;18.70;99.10;;;;;;5051287;28;20064;-81
2022/05/21 08:56:50;;;;;;;16.13;9.98;;;18.80;99.40;;;;;;5051609;28;20028;-82
2022/05/21 08:59:19;;;;;;;16.67;12.15;;;18.60;99.90;;;;;;5051273;28;20021;-81
2022/05/21 09:01:44;;;;;;;18.13;11.45;;;17.90;99.90;;;;;;5051445;28;20021;-82
2022/05/21 09:04:12;;;;;;;17.92;11.77;;;17.60;99.90;;;;;;5051689;28;20385;-82
2022/05/21 09:06:51;;;;;;;16.85;11.60;;;16.60;99.90;;;;;;5051742;28;20068;-82
2022/05/21 09:09:56;;;;;;;18.35;11.10;;;16.50;99.90;;;;;;5051518;28;20025;-82
2022/05/21 09:12:27;;;;;;;14.60;10.75;;;16.50;99.90;;;;;;5051545;28;20291;-82
2022/05/21 09:14:59;;;;;;;15.32;11.27;;;16.30;99.90;;;;;;5051376;28;20037;-81
2022/05/21 09:17:25;;;;;;;19.23;11.05;;;16.30;99.90;;;;;;5052280;28;20029;-82
2022/05/21 09:19:57;;;;;;;15.30;10.88;;;16.30;99.90;;;;;;5055359;28;20059;-83
2022/05/21 09:22:24;;;;;;;19.08;11.13;;;16.40;99.90;;;;;;5054510;28;20056;-82
2022/05/21 09:24:52;;;;;;;20.27;12.35;;;16.30;99.90;;;;;;5054532;28;20025;-82
2022/05/21 09:27:42;;;;;;;14.82;10.75;;;16.20;99.90;;;;;;5055490;28;20025;-82
2022/05/21 09:30:20;;;;;;;14.63;11.18;;;16.70;99.90;;;;;;5055141;28;20025;-83
2022/05/21 09:32:52;;;;;;;16.20;9.07;;;18.10;99.90;;;;;;5055915;28;20029;-82
2022/05/21 09:35:21;;;;;;;12.35;7.97;;;19.40;99.90;;;;;;5056065;28;20082;-83
2022/05/21 09:37:49;;;;;;;10.73;7.55;;;20.70;97.50;;;;;;5058921;28;20029;-83
2022/05/21 09:40:37;;;;;;;13.85;7.50;;;20.60;96.10;;;;;;5057472;28;20025;-83
2022/05/21 09:46:14;;;;;;;13.20;7.68;;;19.10;98.40;;;;;;5066224;28;20060;-84
2022/05/21 09:48:40;;;;;;;16.20;8.93;;;18.70;98.90;;;;;;5061390;28;20025;-82
2022/05/21 09:51:19;;;;;;;14.68;8.52;;;18.30;99.60;;;;;;5056789;28;20035;-83
2022/05/21 09:53:45;;;;;;;13.18;7.70;;;18.00;99.90;;;;;;5056676;28;20071;-83
2022/05/21 09:56:29;;;;;;;11.55;7.55;;;17.90;99.90;;;;;;5057191;28;20056;-82
2022/05/21 09:59:16;;;;;;;10.68;7.03;;;17.90;99.90;;;;;;5056048;28;20394;-82
2022/05/21 10:01:48;;;;;;;12.80;7.47;;;18.00;99.90;;;;;;5056750;28;20387;-82
2022/05/21 10:04:27;;;;;;;14.38;7.65;;;17.90;99.70;;;;;;5054892;28;20090;-83
2022/05/21 10:13:09;;;;;;;9.80;6.35;;;17.90;99.90;;;;;;5056401;28;20044;-83
2022/05/21 10:15:43;;;;;;;11.75;7.90;;;17.70;99.90;;;;;;5056169;28;20052;-83
2022/05/21 10:18:26;;;;;;;16.35;7.97;;;17.30;99.90;;;;;;5054728;28;20028;-82
2022/05/21 10:20:58;;;;;;;18.10;7.80;;;16.90;99.90;;;;;;5054646;28;20017;-83
2022/05/21 10:23:34;;;;;;;17.58;7.30;;;16.90;99.90;;;;;;5056260;28;20021;-82
2022/05/21 10:26:08;;;;;;;13.95;7.22;;;16.60;99.90;;;;;;5054760;28;20017;-83
2022/05/21 10:28:46;;;;;;;13.27;6.68;;;16.80;99.90;;;;;;5055715;28;20025;-83
2022/05/21 10:31:36;;;;;;;10.20;5.75;;;17.00;99.90;;;;;;5055076;28;20017;-83
2022/05/21 10:34:24;;;;;;;10.85;6.80;;;17.00;99.90;;;;;;5055232;28;20036;-83
2022/05/21 10:36:56;;;;;;;10.02;5.55;;;16.90;99.90;;;;;;5053904;28;20045;-83
2022/05/21 10:39:53;;;;;;;10.55;5.90;;;17.10;99.90;;;;;;5056096;28;20021;-82
2022/05/21 10:42:53;;;;;;;10.77;4.88;;;17.30;99.90;;;;;;5054919;28;20074;-83
2022/05/21 10:46:00;;;;;;;14.75;5.88;;;17.30;99.90;;;;;;5053957;28;20021;-83
2022/05/21 10:48:45;;;;;;;10.52;5.30;;;17.10;99.90;;;;;;5035600;28;20082;-83
2022/05/21 10:51:33;;;;;;;10.68;5.05;;;17.10;99.90;;;;;;5052715;28;20402;-82
2022/05/21 10:54:32;;;;;;;10.38;5.28;;;17.20;99.90;;;;;;5054531;28;20075;-83
2022/05/21 10:57:47;;;;;;;11.68;4.22;;;17.40;99.90;;;;;;5055245;28;20044;-83
2022/05/21 11:00:47;;;;;;;9.52;4.68;;;17.50;99.90;;;;;;5053234;28;20025;-83
2022/05/21 11:03:34;;;;;;;8.93;3.65;;;17.70;99.90;;;;;;5053829;28;20025;-83
2022/05/21 11:06:13;;;;;;;14.15;4.40;;;18.00;99.60;;;;;;5056091;28;20070;-82
2022/05/21 11:08:55;;;;;;;7.50;3.50;;;18.20;99.50;;;;;;5054916;28;20021;-83
2022/05/21 11:11:59;;;;;;;10.23;3.50;;;19.00;98.40;;;;;;5055853;28;20111;-85
2022/05/21 11:14:40;;;;;;;6.90;3.10;;;19.60;96.30;;;;;;5056881;28;20024;-84
2022/05/21 11:17:27;;;;;;;9.90;4.60;;;19.40;96.80;;;;;;5056902;28;20039;-84
2022/05/21 11:20:20;;;;;;;9.02;4.90;;;18.90;99.10;;;;;;5056264;28;20432;-82
2022/05/21 11:23:34;;;;;;;8.95;5.20;;;17.60;99.90;;;;;;5056987;28;20029;-82
2022/05/21 11:26:16;;;;;;;15.98;4.43;;;17.30;99.90;;;;;;5057994;28;20029;-82
2022/05/21 11:28:52;;;;;;;9.75;4.68;;;17.20;99.90;;;;;;5059753;28;20079;-82
2022/05/21 11:37:20;;;;;;;11.07;4.63;;;17.00;99.90;;;;;;5057930;28;20021;-82
2022/05/21 11:39:39;;;;;;;7.32;3.88;;;20.40;99.90;;;;;;5060853;28;20032;-84
2022/05/21 11:42:08;;;;;;;5.78;2.95;;;21.60;97.70;;;;;;5059447;28;20474;-83
2022/05/21 11:44:55;;;;;;;7.22;3.53;;;22.10;96.10;;;;;;5059519;28;20029;-83
2022/05/21 11:47:21;;;;;;;9.63;3.70;;;21.90;93.70;;;;;;5057589;28;20035;-83
2022/05/21 11:49:51;;;;;;;13.77;3.22;;;21.70;93.60;;;;;;5056792;28;20025;-83
2022/05/21 11:52:34;;;;;;;8.68;4.20;;;21.00;93.80;;;;;;5058996;28;20067;-83
2022/05/21 11:55:09;;;;;;;13.10;4.45;;;20.20;95.90;;;;;;5060059;28;20486;-83
2022/05/21 11:57:39;;;;;;;6.72;3.13;;;19.70;95.90;;;;;;5062259;28;20040;-83
2022/05/21 12:00:17;;;;;;;8.75;3.33;;;19.00;96.80;;;;;;5059093;28;20047;-83
2022/05/21 12:02:56;;;;;;;17.73;3.72;;;18.80;97.00;;;;;;5056662;28;20070;-82
2022/05/21 12:05:46;;;;;;;9.57;3.90;;;18.70;97.50;;;;;;5058573;28;20028;-83
2022/05/21 12:08:32;;;;;;;11.18;3.72;;;19.30;97.60;;;;;;5057157;28;20035;-83
2022/05/21 12:11:16;;;;;;;37.63;22.73;;;19.60;96.10;;;;;;5115544;27;20376;-83
2022/05/21 12:14:19;;;;;;;9.35;4.97;;;19.60;96.50;;;;;;5115026;28;20035;-83
2022/05/21 12:16:49;;;;;;;11.13;7.65;;;19.50;95.50;;;;;;5115456;28;20020;-83
2022/05/21 12:19:52;;;;;;;10.37;3.13;;;19.30;96.40;;;;;;5115184;28;20290;-83
2022/05/21 12:22:37;;;;;;;7.07;3.45;;;19.00;96.70;;;;;;5115463;28;20039;-83
2022/05/21 12:25:04;;;;;;;15.98;4.70;;;19.40;97.10;;;;;;5116366;28;20059;-83
2022/05/21 12:27:30;;;;;;;6.70;2.72;;;19.90;95.20;;;;;;5116400;28;20031;-83
2022/05/21 12:30:13;;;;;;;6.05;2.20;;;20.10;94.70;;;;;;5114665;28;20024;-84
2022/05/21 12:32:40;;;;;;;7.20;3.10;;;20.60;95.60;;;;;;5115646;28;20103;-83
2022/05/21 12:35:25;;;;;;;5.10;2.38;;;20.50;92.90;;;;;;5114781;28;20015;-83
2022/05/21 12:38:04;;;;;;;7.38;2.50;;;20.40;93.20;;;;;;5115990;28;20023;-83
2022/05/21 12:40:50;;;;;;;8.13;2.90;;;20.00;92.90;;;;;;5109826;28;20063;-83
2022/05/21 12:43:16;;;;;;;6.82;2.55;;;19.90;93.60;;;;;;5108596;28;20038;-83
2022/05/21 12:45:50;;;;;;;5.53;2.30;;;20.10;95.30;;;;;;5110112;28;20028;-83
2022/05/21 12:48:31;;;;;;;7.28;2.78;;;20.50;94.20;;;;;;5110449;28;20032;-83
2022/05/21 12:51:22;;;;;;;5.55;2.25;;;20.40;93.50;;;;;;5109779;28;20508;-82
2022/05/21 12:53:50;;;;;;;5.22;2.30;;;20.20;94.90;;;;;;5110492;28;20040;-83
2022/05/21 12:56:20;;;;;;;10.05;3.22;;;20.40;94.10;;;;;;5108854;28;20027;-83
2022/05/21 12:58:46;;;;;;;;;;;20.60;93.60;;;;;;5109177;28;20016;-83
2022/05/21 13:01:27;;;;;;;8.13;2.60;;;21.10;92.70;;;;;;5108207;28;19911;-83
2022/05/21 13:03:53;;;;;;;9.57;2.35;;;21.20;92.00;;;;;;5109168;28;20111;-83
2022/05/21 13:06:24;;;;;;;5.22;2.25;;;20.90;91.60;;;;;;5113294;28;20059;-83
2022/05/21 13:08:50;;;;;;;7.97;2.92;;;21.00;91.80;;;;;;5111725;28;20030;-84
2022/05/21 13:11:22;;;;;;;7.40;1.98;;;21.20;91.80;;;;;;5114529;28;20041;-83
2022/05/21 13:14:07;;;;;;;3.92;1.70;;;21.00;91.20;;;;;;5117904;28;20031;-82
2022/05/21 13:16:33;;;;;;;5.32;1.75;;;20.70;91.20;;;;;;5119357;28;20043;-82
2022/05/21 13:18:59;;;;;;;6.70;1.70;;;20.60;92.40;;;;;;5117591;28;20023;-82
2022/05/21 13:21:57;;;;;;;3.72;1.88;;;20.40;91.90;;;;;;5110518;28;20030;-84
2022/05/21 13:24:32;;;;;;;3.42;1.27;;;19.60;92.50;;;;;;5104038;28;20035;-83
2022/05/21 13:27:20;;;;;;;5.53;1.50;;;19.30;92.70;;;;;;5103201;28;20051;-83
2022/05/21 13:29:48;;;;;;;4.88;1.52;;;19.00;92.70;;;;;;5102808;28;20028;-84
2022/05/21 13:32:26;;;;;;;3.67;1.60;;;18.80;93.90;;;;;;5102085;28;20016;-84
2022/05/21 13:34:53;;;;;;;4.85;1.75;;;18.70;94.50;;;;;;5102643;28;20043;-85
2022/05/21 13:37:33;;;;;;;6.55;1.58;;;18.60;94.70;;;;;;5104010;28;20074;-83